createdAt,value
2023-07-12T00:01:17.074Z,26.30
2023-07-12T00:03:45.019Z,26.20
2023-07-12T00:06:14.654Z,26.20
2023-07-12T00:08:42.739Z,26.20
2023-07-12T00:11:17.214Z,26.20
2023-07-12T00:13:45.117Z,26.20
2023-07-12T00:16:21.478Z,26.20
2023-07-12T00:18:49.537Z,26.20
2023-07-12T00:21:24.174Z,26.10
2023-07-12T00:23:53.654Z,26.00
2023-07-12T00:26:23.695Z,26.00
2023-07-12T00:28:51.559Z,26.10
2023-07-12T00:31:20.825Z,26.10
2023-07-12T00:33:48.666Z,26.10
2023-07-12T00:36:19.632Z,26.00
2023-07-12T00:38:47.414Z,26.00
2023-07-12T00:41:24.807Z,25.90
2023-07-12T00:43:58.392Z,25.90
2023-07-12T00:46:34.428Z,25.80
2023-07-12T00:49:02.962Z,25.80
2023-07-12T00:51:38.981Z,25.80
2023-07-12T00:54:13.351Z,25.70
2023-07-12T00:56:41.906Z,25.60
2023-07-12T00:59:14.870Z,25.70
2023-07-12T01:01:44.846Z,25.70
2023-07-12T01:04:17.264Z,25.60
2023-07-12T01:06:45.109Z,25.50
2023-07-12T01:09:15.714Z,25.50
2023-07-12T01:11:44.161Z,25.50
2023-07-12T01:14:14.028Z,25.40
2023-07-12T01:16:46.524Z,25.40
2023-07-12T01:19:14.563Z,25.50
2023-07-12T01:21:47.117Z,25.50
2023-07-12T01:24:15.204Z,25.50
2023-07-12T01:26:45.015Z,25.50
2023-07-12T01:29:13.177Z,25.30
2023-07-12T01:31:41.446Z,25.30
2023-07-12T01:34:10.414Z,25.30
2023-07-12T01:36:39.299Z,25.20
2023-07-12T01:39:09.059Z,25.10
2023-07-12T01:41:36.940Z,25.10
2023-07-12T01:44:04.977Z,25.10
2023-07-12T01:46:33.177Z,25.00
2023-07-12T01:49:01.186Z,24.90
2023-07-12T01:51:30.585Z,24.90
2023-07-12T01:53:58.414Z,25.00
2023-07-12T01:56:27.601Z,25.20
2023-07-12T01:58:55.418Z,25.20
2023-07-12T02:01:23.398Z,25.00
2023-07-12T02:03:51.400Z,25.00
2023-07-12T02:06:19.352Z,25.00
2023-07-12T02:08:47.521Z,24.90
2023-07-12T02:11:15.505Z,25.00
2023-07-12T02:13:44.722Z,24.90
2023-07-12T02:16:12.573Z,24.80
2023-07-12T02:18:40.480Z,24.80
2023-07-12T02:21:08.351Z,24.80
2023-07-12T02:23:36.400Z,24.70
2023-07-12T02:26:04.207Z,24.60
2023-07-12T02:28:32.058Z,24.50
2023-07-12T02:31:20.572Z,24.50
2023-07-12T02:33:48.683Z,24.50
2023-07-12T02:36:16.875Z,24.50
2023-07-12T02:38:44.736Z,24.40
2023-07-12T02:41:12.839Z,24.40
2023-07-12T02:43:40.779Z,24.40
2023-07-12T02:46:08.709Z,24.50
2023-07-12T02:48:38.330Z,24.50
2023-07-12T02:51:06.275Z,24.40
2023-07-12T02:53:37.473Z,24.40
2023-07-12T02:56:07.819Z,24.40
2023-07-12T02:58:35.707Z,24.30
2023-07-12T03:01:03.697Z,24.40
2023-07-12T03:03:31.808Z,24.30
2023-07-12T03:06:05.413Z,24.30
2023-07-12T03:08:33.219Z,24.20
2023-07-12T03:11:01.681Z,24.20
2023-07-12T03:13:29.522Z,24.30
2023-07-12T03:15:57.328Z,24.30
2023-07-12T03:18:25.191Z,24.20
2023-07-12T03:20:53.324Z,24.20
2023-07-12T03:23:22.443Z,24.20
2023-07-12T03:25:50.234Z,24.20
2023-07-12T03:28:18.043Z,24.20
2023-07-12T03:30:57.572Z,24.00
2023-07-12T03:33:25.418Z,24.00
2023-07-12T03:35:53.514Z,24.00
2023-07-12T03:38:26.010Z,24.00
2023-07-12T03:40:54.191Z,24.10
2023-07-12T03:43:22.181Z,24.10
2023-07-12T03:45:50.000Z,24.00
2023-07-12T03:48:17.852Z,24.00
2023-07-12T03:50:48.425Z,23.90
2023-07-12T03:53:16.318Z,23.90
2023-07-12T03:55:46.649Z,23.90
2023-07-12T03:58:16.713Z,23.90
2023-07-12T04:00:47.155Z,23.80
2023-07-12T04:03:15.242Z,23.70
2023-07-12T04:05:44.300Z,23.70
2023-07-12T04:08:14.394Z,23.70
2023-07-12T04:10:42.210Z,23.70
2023-07-12T04:13:11.454Z,23.70
2023-07-12T04:15:39.371Z,23.70
2023-07-12T04:18:07.493Z,23.60
2023-07-12T04:20:39.895Z,23.60
2023-07-12T04:23:08.682Z,23.50
2023-07-12T04:25:36.534Z,23.40
2023-07-12T04:28:04.352Z,23.40
2023-07-12T04:30:34.268Z,23.40
2023-07-12T04:33:02.701Z,23.30
2023-07-12T04:35:30.559Z,23.30
2023-07-12T04:37:59.855Z,23.20
2023-07-12T04:40:27.732Z,23.30
2023-07-12T04:42:55.494Z,23.30
2023-07-12T04:45:23.270Z,23.30
2023-07-12T04:47:52.481Z,23.30
2023-07-12T04:50:20.389Z,23.40
2023-07-12T04:52:48.344Z,23.30
2023-07-12T04:55:23.974Z,23.40
2023-07-12T04:57:51.730Z,23.50
2023-07-12T05:00:20.076Z,23.50
2023-07-12T05:02:48.759Z,23.50
2023-07-12T05:05:18.300Z,23.80
2023-07-12T05:07:46.101Z,23.90
2023-07-12T05:10:14.096Z,24.00
2023-07-12T05:12:43.407Z,23.80
2023-07-12T05:15:13.720Z,23.70
2023-07-12T05:17:42.181Z,23.80
2023-07-12T05:20:13.940Z,24.20
2023-07-12T05:22:44.418Z,25.00
2023-07-12T05:25:13.787Z,25.20
2023-07-12T05:27:41.841Z,24.80
2023-07-12T05:30:12.049Z,24.60
2023-07-12T05:32:41.633Z,24.60
2023-07-12T05:35:10.163Z,24.60
2023-07-12T05:37:38.001Z,25.10
2023-07-12T05:40:10.885Z,25.30
2023-07-12T05:42:41.400Z,24.90
2023-07-12T05:45:10.971Z,24.30
2023-07-12T05:47:39.279Z,24.00
2023-07-12T05:50:08.561Z,23.80
2023-07-12T05:52:36.370Z,23.70
2023-07-12T05:55:04.706Z,23.70
2023-07-12T05:57:33.887Z,23.70
2023-07-12T06:00:02.377Z,23.70
2023-07-12T06:02:30.289Z,23.80
2023-07-12T06:04:58.079Z,23.70
2023-07-12T06:07:25.889Z,23.70
2023-07-12T06:09:53.834Z,23.70
2023-07-12T06:12:21.863Z,23.60
2023-07-12T06:14:51.007Z,23.60
2023-07-12T06:17:18.921Z,23.60
2023-07-12T06:19:46.865Z,23.60
2023-07-12T06:22:14.638Z,23.60
2023-07-12T06:24:42.570Z,23.50
2023-07-12T06:27:10.421Z,23.50
2023-07-12T06:29:38.274Z,23.50
2023-07-12T06:32:08.382Z,23.50
2023-07-12T06:34:36.179Z,23.50
2023-07-12T06:37:04.020Z,23.50
2023-07-12T06:39:31.791Z,23.30
2023-07-12T06:41:59.575Z,23.50
2023-07-12T06:44:27.372Z,23.40
2023-07-12T06:46:55.220Z,23.50
2023-07-12T06:49:24.418Z,23.40
2023-07-12T06:51:52.183Z,23.40
2023-07-12T06:54:19.960Z,23.20
2023-07-12T06:56:49.420Z,23.20
2023-07-12T06:59:17.320Z,23.10
2023-07-12T07:01:47.587Z,23.10
2023-07-12T07:04:15.528Z,23.10
2023-07-12T07:06:45.103Z,23.00
2023-07-12T07:09:13.035Z,23.20
2023-07-12T07:11:41.145Z,22.90
2023-07-12T07:14:08.968Z,22.80
2023-07-12T07:16:37.261Z,22.90
2023-07-12T07:19:05.211Z,23.00
2023-07-12T07:21:33.108Z,23.00
2023-07-12T07:24:02.290Z,23.10
2023-07-12T07:26:30.656Z,23.20
2023-07-12T07:28:58.477Z,23.20
2023-07-12T07:31:26.362Z,23.20
2023-07-12T07:33:54.175Z,23.20
2023-07-12T07:36:22.009Z,23.20
2023-07-12T07:38:49.876Z,23.30
2023-07-12T07:41:19.017Z,23.20
2023-07-12T07:43:46.905Z,23.20
2023-07-12T07:46:15.871Z,23.20
2023-07-12T07:48:43.833Z,23.20
2023-07-12T07:51:12.260Z,23.20
2023-07-12T07:53:40.131Z,23.20
2023-07-12T07:56:08.857Z,23.20
2023-07-12T07:58:38.197Z,23.20
2023-07-12T08:01:06.437Z,23.30
2023-07-12T08:03:36.177Z,23.30
2023-07-12T08:06:05.028Z,23.30
2023-07-12T08:08:34.913Z,23.40
2023-07-12T08:11:05.824Z,23.40
2023-07-12T08:13:33.667Z,23.40
2023-07-12T08:16:02.955Z,23.40
2023-07-12T08:18:30.961Z,23.50
2023-07-12T08:20:59.523Z,23.50
2023-07-12T08:23:28.769Z,23.50
2023-07-12T08:25:56.705Z,23.50
2023-07-12T08:28:24.495Z,23.50
2023-07-12T08:30:52.782Z,23.60
2023-07-12T08:33:22.021Z,23.60
2023-07-12T08:35:50.497Z,23.60
2023-07-12T08:38:19.870Z,23.70
2023-07-12T08:40:50.654Z,23.70
2023-07-12T08:43:20.751Z,23.70
2023-07-12T08:45:50.421Z,23.70
2023-07-12T08:48:23.797Z,23.80
2023-07-12T08:50:52.938Z,23.90
2023-07-12T08:53:23.160Z,24.00
2023-07-12T08:55:51.985Z,24.10
2023-07-12T08:58:24.276Z,24.30
2023-07-12T09:00:58.201Z,24.20
2023-07-12T09:03:27.391Z,24.20
2023-07-12T09:05:55.168Z,24.20
2023-07-12T09:08:32.662Z,24.30
2023-07-12T09:11:00.462Z,24.40
2023-07-12T09:13:34.985Z,24.30
2023-07-12T09:16:04.238Z,24.50
2023-07-12T09:18:37.670Z,24.50
2023-07-12T09:21:14.745Z,24.50
2023-07-12T09:23:45.092Z,24.90
2023-07-12T09:26:14.554Z,25.30
2023-07-12T09:28:42.712Z,25.30
2023-07-12T09:31:15.094Z,25.10
2023-07-12T09:33:51.575Z,25.20
2023-07-12T09:36:19.339Z,25.30
2023-07-12T09:38:48.218Z,25.00
2023-07-12T09:41:20.611Z,25.20
2023-07-12T09:43:54.797Z,25.80
2023-07-12T09:46:32.972Z,26.00
2023-07-12T09:49:06.959Z,25.80
2023-07-12T09:51:42.612Z,25.60
2023-07-12T09:54:24.428Z,25.60
2023-07-12T09:56:57.897Z,25.70
2023-07-12T09:59:36.704Z,25.90
2023-07-12T10:02:18.021Z,26.10
2023-07-12T10:04:51.710Z,25.90
2023-07-12T10:07:36.216Z,25.90
2023-07-12T10:10:05.073Z,25.80
2023-07-12T10:12:41.247Z,25.90
2023-07-12T10:15:14.841Z,26.00
2023-07-12T10:17:46.586Z,26.30
2023-07-12T10:20:18.585Z,26.60
2023-07-12T10:22:48.069Z,26.70
2023-07-12T10:25:23.818Z,26.70
2023-07-12T10:27:57.553Z,26.70
2023-07-12T10:30:28.293Z,26.70
2023-07-12T10:33:02.394Z,26.70
2023-07-12T10:35:40.600Z,26.50
2023-07-12T10:38:14.364Z,26.60
2023-07-12T10:40:49.298Z,26.80
2023-07-12T10:43:22.128Z,27.00
2023-07-12T10:45:53.053Z,27.20
2023-07-12T10:48:26.003Z,27.30
2023-07-12T10:50:57.772Z,27.20
2023-07-12T10:53:36.051Z,27.50
2023-07-12T10:56:18.227Z,27.60
2023-07-12T10:58:56.362Z,27.40
2023-07-12T11:01:55.190Z,27.60
2023-07-12T11:04:36.446Z,27.70
2023-07-12T11:07:31.165Z,27.90
2023-07-12T11:10:24.352Z,27.40
2023-07-12T11:12:54.692Z,27.60
2023-07-12T11:15:25.330Z,27.30
2023-07-12T11:18:02.078Z,27.60
2023-07-12T11:20:34.079Z,27.60
2023-07-12T11:23:23.703Z,27.60
2023-07-12T11:25:59.801Z,27.80
2023-07-12T11:28:41.841Z,28.00
2023-07-12T11:31:33.053Z,27.80
2023-07-12T11:34:12.167Z,27.80
2023-07-12T11:36:40.513Z,28.00
2023-07-12T11:39:17.844Z,28.20
2023-07-12T11:41:56.282Z,28.20
2023-07-12T11:44:26.553Z,28.00
2023-07-12T11:46:55.504Z,27.20
2023-07-12T11:49:27.554Z,27.50
2023-07-12T11:51:58.352Z,27.60
2023-07-12T11:54:29.092Z,27.30
2023-07-12T11:57:01.073Z,27.60
2023-07-12T11:59:32.058Z,27.70
2023-07-12T12:02:00.357Z,27.60
2023-07-12T12:04:32.655Z,27.70
2023-07-12T12:07:04.352Z,27.90
2023-07-12T12:09:34.697Z,27.90
2023-07-12T12:12:08.296Z,27.80
2023-07-12T12:14:41.130Z,28.00
2023-07-12T12:17:16.216Z,28.00
2023-07-12T12:19:49.539Z,28.00
2023-07-12T12:22:19.839Z,28.10
2023-07-12T12:24:50.862Z,28.10
2023-07-12T12:27:22.540Z,28.00
2023-07-12T12:29:50.806Z,27.90
2023-07-12T12:32:21.296Z,28.40
2023-07-12T12:34:53.103Z,28.70
2023-07-12T12:37:24.775Z,28.80
2023-07-12T12:40:00.100Z,28.80
2023-07-12T12:42:31.793Z,28.80
2023-07-12T12:44:59.962Z,28.80
2023-07-12T12:47:31.432Z,28.80
2023-07-12T12:53:14.455Z,28.40
2023-07-12T12:55:35.458Z,28.40
2023-07-12T12:58:27.543Z,28.30
2023-07-12T13:04:45.132Z,28.40
2023-07-12T13:06:20.276Z,28.40
2023-07-12T13:21:43.530Z,28.10
2023-07-12T13:24:11.448Z,28.10
2023-07-12T13:26:41.537Z,28.00
2023-07-12T13:29:20.172Z,28.10
2023-07-12T13:31:48.053Z,28.00
2023-07-12T13:34:18.938Z,27.60
2023-07-12T13:36:48.780Z,27.60
2023-07-12T13:46:54.352Z,26.10
2023-07-12T13:49:23.077Z,26.00
2023-07-12T13:51:51.054Z,26.20
2023-07-12T13:54:20.945Z,26.70
2023-07-12T13:56:48.979Z,26.60
2023-07-12T13:59:19.044Z,26.70
2023-07-12T14:03:05.118Z,26.00
2023-07-12T14:04:50.162Z,26.30
2023-07-12T14:08:08.193Z,26.20
2023-07-12T14:10:17.306Z,26.50
2023-07-12T14:12:46.464Z,26.60
2023-07-12T14:15:21.919Z,26.60
2023-07-12T14:17:51.606Z,26.40
2023-07-12T14:20:21.292Z,26.50
2023-07-12T14:22:49.549Z,26.20
2023-07-12T14:25:19.544Z,25.80
2023-07-12T14:27:47.637Z,25.70
2023-07-12T14:32:49.619Z,24.60
2023-07-12T14:35:21.812Z,25.30
2023-07-12T14:37:51.220Z,25.00
2023-07-12T14:40:19.619Z,24.20
2023-07-12T14:42:47.952Z,25.00
2023-07-12T14:45:17.190Z,25.50
2023-07-12T14:47:45.389Z,25.80
2023-07-12T14:50:15.316Z,25.50
2023-07-12T14:52:45.178Z,25.10
2023-07-12T14:55:15.010Z,25.90
2023-07-12T15:00:16.783Z,25.30
2023-07-12T15:02:50.254Z,25.70
2023-07-12T15:05:18.272Z,25.50
2023-07-12T15:07:47.686Z,25.80
2023-07-12T15:10:18.902Z,26.00
2023-07-12T15:12:49.280Z,26.00
2023-07-12T15:15:21.088Z,26.00
2023-07-12T15:18:01.208Z,25.90
2023-07-12T15:20:29.361Z,25.80
2023-07-12T15:22:58.746Z,25.80
2023-07-12T15:25:30.337Z,25.80
2023-07-12T15:27:58.999Z,25.80
2023-07-12T15:30:29.983Z,25.70
2023-07-12T15:32:59.098Z,25.70
2023-07-12T15:35:30.995Z,25.70
2023-07-12T15:38:01.940Z,25.60
2023-07-12T15:40:49.496Z,25.60
2023-07-12T15:43:18.406Z,25.60
2023-07-12T15:45:46.330Z,25.60
2023-07-12T15:48:15.344Z,25.50
2023-07-12T15:50:46.147Z,25.30
2023-07-12T15:53:16.666Z,25.10
2023-07-12T15:55:44.860Z,25.10
2023-07-12T15:58:22.002Z,25.20
2023-07-12T16:00:51.859Z,25.20
2023-07-12T16:03:21.505Z,25.10
2023-07-12T16:05:53.829Z,25.20
2023-07-12T16:08:24.117Z,25.10
2023-07-12T16:10:53.772Z,25.10
2023-07-12T16:13:23.429Z,25.10
2023-07-12T16:15:53.039Z,25.10
2023-07-12T16:18:22.939Z,25.10
2023-07-12T16:20:53.514Z,25.20
2023-07-12T16:23:26.974Z,25.20
2023-07-12T16:25:54.758Z,25.20
2023-07-12T16:28:22.600Z,25.20
2023-07-12T16:30:50.615Z,25.20
2023-07-12T16:33:20.695Z,25.20
2023-07-12T16:35:50.340Z,25.20
2023-07-12T16:38:21.723Z,25.10
2023-07-12T16:40:53.138Z,25.10
2023-07-12T16:43:21.763Z,25.10
2023-07-12T16:45:50.661Z,25.00
2023-07-12T16:48:18.954Z,25.10
2023-07-12T16:50:49.155Z,25.00
2023-07-12T16:53:18.664Z,25.00
2023-07-12T16:55:48.569Z,25.00
2023-07-12T16:58:22.774Z,24.90
2023-07-12T17:00:53.237Z,24.90
2023-07-12T17:03:21.223Z,24.90
2023-07-12T17:05:49.223Z,24.90
2023-07-12T17:08:20.504Z,24.80
2023-07-12T17:10:48.357Z,24.80
2023-07-12T17:13:18.468Z,24.80
2023-07-12T17:15:48.299Z,24.80
2023-07-12T17:18:18.528Z,24.80
2023-07-12T17:20:48.091Z,24.40
2023-07-12T17:23:17.847Z,24.60
2023-07-12T17:25:47.406Z,24.70
2023-07-12T17:28:17.900Z,24.80
2023-07-12T17:30:48.400Z,24.80
2023-07-12T17:33:20.210Z,24.80
2023-07-12T17:35:49.780Z,24.70
2023-07-12T17:38:19.824Z,24.70
2023-07-12T17:40:50.369Z,24.70
2023-07-12T17:43:20.778Z,24.70
2023-07-12T17:45:50.495Z,24.70
2023-07-12T17:48:19.344Z,24.70
2023-07-12T17:50:49.031Z,24.70
2023-07-12T17:53:21.032Z,24.70
2023-07-12T17:55:49.089Z,24.70
2023-07-12T17:58:17.057Z,24.60
2023-07-12T18:00:47.071Z,24.60
2023-07-12T18:03:18.898Z,24.60
2023-07-12T18:05:47.621Z,24.40
2023-07-12T18:08:18.923Z,24.40
2023-07-12T18:10:51.052Z,24.50
2023-07-12T18:13:21.492Z,24.50
2023-07-12T18:15:49.795Z,24.50
2023-07-12T18:18:19.373Z,24.40
2023-07-12T18:20:48.303Z,24.40
2023-07-12T18:23:18.701Z,24.40
2023-07-12T18:25:48.158Z,24.40
2023-07-12T18:28:17.952Z,24.40
2023-07-12T18:33:42.729Z,24.30
2023-07-12T18:36:18.169Z,24.30
2023-07-12T18:38:47.210Z,24.30
2023-07-12T18:41:17.866Z,24.30
2023-07-12T18:43:45.788Z,24.30
2023-07-12T18:46:14.335Z,24.30
2023-07-12T18:48:44.853Z,24.20
2023-07-12T18:51:14.016Z,24.20
2023-07-12T18:53:43.025Z,24.20
2023-07-12T18:56:17.472Z,24.20
2023-07-12T18:58:45.603Z,24.10
2023-07-12T19:01:15.424Z,24.10
2023-07-12T19:03:45.288Z,24.00
2023-07-12T19:06:18.144Z,24.00
2023-07-12T19:08:46.188Z,24.00
2023-07-12T19:11:25.310Z,24.00
2023-07-12T19:13:53.863Z,24.00
2023-07-12T19:16:22.649Z,23.90
2023-07-12T19:18:52.592Z,23.90
2023-07-12T19:21:25.920Z,23.90
2023-07-12T19:23:55.323Z,23.80
2023-07-12T19:26:25.510Z,23.80
2023-07-12T19:28:54.593Z,23.80
2023-07-12T19:31:24.383Z,23.60
2023-07-12T19:33:55.417Z,23.70
2023-07-12T19:36:23.592Z,23.80
2023-07-12T19:38:51.585Z,23.80
2023-07-12T19:41:21.499Z,23.70
2023-07-12T19:43:50.713Z,23.70
2023-07-12T19:46:20.306Z,23.70
2023-07-12T19:48:48.473Z,23.70
2023-07-12T19:51:21.498Z,23.70
2023-07-12T19:53:53.707Z,23.70
2023-07-12T19:56:21.856Z,23.70
2023-07-12T19:58:53.924Z,23.60
2023-07-12T20:01:24.867Z,23.70
2023-07-12T20:03:54.109Z,23.60
2023-07-12T20:06:23.997Z,23.60
2023-07-12T20:08:53.746Z,23.60
2023-07-12T20:11:22.427Z,23.60
2023-07-12T20:13:50.974Z,23.50
2023-07-12T20:16:20.953Z,23.20
2023-07-12T20:18:48.921Z,23.40
2023-07-12T20:21:17.198Z,23.40
2023-07-12T20:23:46.390Z,23.40
2023-07-12T20:26:14.751Z,23.30
2023-07-12T20:28:42.609Z,23.30
2023-07-12T20:31:12.178Z,23.30
2023-07-12T20:33:40.332Z,23.30
2023-07-12T20:36:11.232Z,22.90
2023-07-12T20:38:39.362Z,22.60
2023-07-12T20:41:08.884Z,22.70
2023-07-12T20:43:38.405Z,22.90
2023-07-12T20:46:06.877Z,22.90
2023-07-12T20:48:37.617Z,23.00
2023-07-12T20:51:07.607Z,22.90
2023-07-12T20:53:35.674Z,22.90
2023-07-12T20:56:03.577Z,22.80
2023-07-12T20:58:32.742Z,22.90
2023-07-12T21:01:10.190Z,22.90
2023-07-12T21:03:38.163Z,22.80
2023-07-12T21:06:06.975Z,22.70
2023-07-12T21:08:35.600Z,22.70
2023-07-12T21:11:04.985Z,22.80
2023-07-12T21:13:35.310Z,22.70
2023-07-12T21:16:05.369Z,22.70
2023-07-12T21:18:33.647Z,22.60
2023-07-12T21:21:02.306Z,22.60
2023-07-12T21:23:30.636Z,22.70
2023-07-12T21:26:00.465Z,22.60
2023-07-12T21:28:29.258Z,22.60
2023-07-12T21:30:58.810Z,22.60
2023-07-12T21:33:26.823Z,22.60
2023-07-12T21:35:57.304Z,22.50
2023-07-12T21:38:27.495Z,22.50
2023-07-12T21:41:00.804Z,22.50
2023-07-12T21:43:28.592Z,22.50
2023-07-12T21:45:57.917Z,22.50
2023-07-12T21:48:25.731Z,22.50
2023-07-12T21:50:54.312Z,22.50
2023-07-12T21:53:22.405Z,22.50
2023-07-12T21:55:50.669Z,22.50
2023-07-12T21:58:19.186Z,22.50
2023-07-12T22:00:47.192Z,22.50
2023-07-12T22:03:16.677Z,22.40
2023-07-12T22:05:45.372Z,22.30
2023-07-12T22:08:13.842Z,22.40
2023-07-12T22:10:42.143Z,22.20
2023-07-12T22:13:10.313Z,22.20
2023-07-12T22:15:38.113Z,22.00
2023-07-12T22:18:06.396Z,22.10
2023-07-12T22:20:37.522Z,22.30
2023-07-12T22:23:05.462Z,22.30
2023-07-12T22:25:33.540Z,22.30
2023-07-12T22:28:01.448Z,22.20
2023-07-12T22:30:33.794Z,22.10
2023-07-12T22:33:02.324Z,22.20
2023-07-12T22:35:31.068Z,22.20
2023-07-12T22:38:01.346Z,22.20
2023-07-12T22:40:30.975Z,22.20
2023-07-12T22:42:59.630Z,22.10
2023-07-12T22:45:28.638Z,22.10
2023-07-12T22:47:56.817Z,22.00
2023-07-12T22:50:24.714Z,22.00
2023-07-12T22:52:53.592Z,22.10
2023-07-12T22:55:23.253Z,22.00
2023-07-12T22:57:51.776Z,22.00
2023-07-12T23:02:55.197Z,22.00
2023-07-12T23:05:23.104Z,22.00
2023-07-12T23:07:50.914Z,21.90
2023-07-12T23:10:21.086Z,21.90
2023-07-12T23:12:51.126Z,21.90
2023-07-12T23:15:21.561Z,21.90
2023-07-12T23:17:52.146Z,21.80
2023-07-12T23:20:21.018Z,21.90
2023-07-12T23:22:48.945Z,21.80
2023-07-12T23:25:26.063Z,21.80
2023-07-12T23:27:56.236Z,21.80
2023-07-12T23:30:25.329Z,21.80
2023-07-12T23:32:53.579Z,21.60
2023-07-12T23:35:21.378Z,21.70
2023-07-12T23:37:49.272Z,21.70
2023-07-12T23:40:17.073Z,21.80
2023-07-12T23:42:44.832Z,21.70
2023-07-12T23:45:13.969Z,21.70
2023-07-12T23:47:41.767Z,21.60
2023-07-12T23:50:12.312Z,21.60
2023-07-12T23:52:40.094Z,21.60
2023-07-12T23:55:08.208Z,21.50
2023-07-12T23:57:36.019Z,21.50
